Accueil
METAR-TAF:

METAR-TAF

Aéroports :

Base d'aéronautique navale de Lanvéoc-Poulmic

Lanvéoc, France

latitude: 48-17N, longitude: 004-26W, altitude: 87 m

Observation

Le bulletin a été fait il y a 26 minutes, à 06:00 UTC
Vent 4 kt de est/nord-est
Température 4°C
Humidité 65%
Pression 1024 hPa
Visibilité 10 km ou plus
Ciel couvert à une hauteur de 3400 ft

METAR: LFRL 080600Z AUTO 06004KT 9999 OVC034 04/M02 Q1024 NOSIG

Heure: 07:26 (06:26 UTC)

Prévision

Le bulletin a été fait il y a 1 heure et 26 minutes, à 05:00 UTC
Prévision valable du 08 à 06 UTC au 09 à 06 UTC
Vent 5 kt de nord-est
Visibilité 10 km ou plus
Nuages fragmentés à une hauteur de 3300 ft
Probabilité 30% :
Temporairement
du 09 à 03 UTC au 09 à 06 UTC
Visibilité: 3000 m
brume

TAF: LFRL 080500Z 0806/0906 05005KT 9999 BKN033 PROB30 TEMPO 0903/0906 3000 BR

Observations et prévisions météorologiques de plus de 4000 aéroports (messages METAR et TAF).

Les stations disponibles sont représentées par des disques jaunes et rouges sur la carte.

Passer la souris dessus pour voir le nom de la station.

Cliquer dessus pour voir les observations et prévisions météorologiques.

Pour changer de carte: cliquez sur les boutons verts avec une croix noire pour zoomer, sur le bouton vert avec un tiret pour effectuer un zoom arrière, ou sur les flèches vertes pour les cartes adjacentes.


METAR-TAF: